Time;durP1;ratioP1;P1;durP2;ratioP2;P2;SDS_P1;SDS_P2;PMS_P1;PMS_P2;Temp;Humidity;BMP_temperature;BMP_pressure;BME280_temperature;BME280_humidity;BME280_pressure;Samples;Min_cycle;Max_cycle;Signal;HPM_P1;HPM_P2
2022/04/19 00:01:29;;;;;;;2.10;1.63;;;3.00;90.70;;;;;;4195009;28;20215;-69
2022/04/19 00:03:29;;;;;;;3.83;1.90;;;3.00;90.90;;;;;;4195008;28;20198;-69
2022/04/19 00:05:32;;;;;;;2.90;2.03;;;2.90;91.10;;;;;;4194432;28;20207;-69
2022/04/19 00:07:33;;;;;;;2.83;1.80;;;2.80;91.40;;;;;;4195071;28;20735;-69
2022/04/19 00:09:33;;;;;;;3.63;1.73;;;2.70;91.60;;;;;;4195299;28;20450;-69
2022/04/19 00:11:34;;;;;;;3.27;1.80;;;2.70;91.90;;;;;;4195200;28;20290;-70
2022/04/19 00:13:34;;;;;;;3.60;1.80;;;2.70;92.10;;;;;;4193550;28;20211;-69
2022/04/19 00:15:38;;;;;;;1.90;1.60;;;2.70;92.00;;;;;;4194218;28;20183;-69
2022/04/19 00:17:39;;;;;;;2.70;1.80;;;2.80;91.80;;;;;;4194878;28;20202;-69
2022/04/19 00:19:40;;;;;;;2.73;1.90;;;2.70;92.40;;;;;;4194739;28;20445;-70
2022/04/19 00:21:40;;;;;;;2.87;1.90;;;2.60;92.20;;;;;;4193649;28;20180;-70
2022/04/19 00:23:41;;;;;;;3.60;2.00;;;2.60;92.20;;;;;;4195127;28;20196;-70
2022/04/19 00:25:48;;;;;;;3.37;1.73;;;2.50;92.40;;;;;;4194781;28;20199;-69
2022/04/19 00:27:50;;;;;;;3.20;1.77;;;2.50;92.60;;;;;;4197430;28;20255;-70
2022/04/19 00:29:53;;;;;;;3.30;1.80;;;2.40;92.80;;;;;;4198397;28;20429;-69
2022/04/19 00:31:54;;;;;;;2.00;1.67;;;2.50;92.80;;;;;;4198554;28;20428;-69
2022/04/19 00:33:55;;;;;;;2.03;1.67;;;2.50;93.00;;;;;;4198302;28;20509;-69
2022/04/19 00:35:55;;;;;;;2.30;1.97;;;2.50;92.80;;;;;;4198149;28;20677;-69
2022/04/19 00:37:56;;;;;;;2.10;1.80;;;2.40;93.10;;;;;;4198748;28;20808;-70
2022/04/19 00:39:58;;;;;;;2.47;1.70;;;2.40;93.20;;;;;;4198592;28;20188;-71
2022/04/19 00:41:59;;;;;;;3.13;1.67;;;2.40;92.90;;;;;;4198488;28;20176;-70
2022/04/19 00:44:00;;;;;;;2.80;1.90;;;2.40;93.40;;;;;;4188516;28;20464;-70
2022/04/19 00:46:01;;;;;;;2.47;2.13;;;2.30;93.60;;;;;;4180045;28;20490;-70
2022/04/19 00:48:02;;;;;;;2.50;1.87;;;2.30;93.80;;;;;;4181754;28;20245;-70
2022/04/19 00:50:05;;;;;;;2.60;1.80;;;2.30;93.60;;;;;;4181678;28;20203;-70
2022/04/19 00:52:07;;;;;;;1.93;1.70;;;2.30;93.50;;;;;;4180284;28;20476;-70
2022/04/19 00:54:08;;;;;;;2.70;2.07;;;2.30;93.40;;;;;;4181744;28;20466;-70
2022/04/19 00:56:08;;;;;;;2.37;1.70;;;2.30;93.50;;;;;;4181172;28;20427;-69
2022/04/19 00:58:10;;;;;;;3.43;1.97;;;2.30;93.50;;;;;;4180504;28;20204;-70
2022/04/19 01:00:12;;;;;;;2.07;1.80;;;2.30;93.40;;;;;;4181726;28;20180;-70
2022/04/19 01:02:13;;;;;;;3.53;2.00;;;2.20;93.70;;;;;;4180357;28;20464;-70
2022/04/19 01:04:13;;;;;;;2.43;1.83;;;2.20;93.90;;;;;;4181740;28;20434;-70
2022/04/19 01:06:14;;;;;;;3.10;2.20;;;2.20;94.00;;;;;;4179505;28;20216;-70
2022/04/19 01:08:15;;;;;;;1.90;1.70;;;2.20;94.00;;;;;;4181468;28;20342;-70
2022/04/19 01:10:16;;;;;;;2.23;1.90;;;2.20;93.80;;;;;;4180297;28;20675;-70
2022/04/19 01:14:38;;;;;;;1.97;1.63;;;2.10;94.20;;;;;;4181128;28;20218;-70
2022/04/19 01:16:40;;;;;;;3.93;2.10;;;2.00;94.60;;;;;;4179549;28;20433;-71
2022/04/19 01:18:42;;;;;;;3.50;1.90;;;2.10;94.60;;;;;;4180358;28;20427;-70
2022/04/19 01:20:42;;;;;;;2.33;1.70;;;2.00;94.50;;;;;;4179111;28;20430;-71
2022/04/19 01:22:44;;;;;;;5.57;2.30;;;2.00;94.60;;;;;;4180675;28;20415;-70
2022/04/19 01:24:44;;;;;;;2.03;1.83;;;2.00;94.40;;;;;;4162372;28;20659;-70
2022/04/19 01:26:46;;;;;;;2.50;1.83;;;2.00;94.50;;;;;;4179777;28;20465;-70
2022/04/19 01:28:47;;;;;;;2.53;2.17;;;2.00;94.60;;;;;;4179561;28;20184;-70
2022/04/19 01:30:52;;;;;;;2.87;1.67;;;1.90;94.70;;;;;;4180325;28;20426;-70
2022/04/19 01:32:53;;;;;;;2.53;1.77;;;1.90;95.00;;;;;;4192494;28;20179;-70
2022/04/19 01:35:17;;;;;;;3.53;2.10;;;1.90;95.20;;;;;;4196518;28;20463;-70
2022/04/19 01:37:18;;;;;;;3.37;1.70;;;1.90;95.50;;;;;;4194907;28;20727;-70
2022/04/19 01:40:16;;;;;;;2.53;2.00;;;1.90;95.50;;;;;;4195863;28;20433;-70
2022/04/19 01:41:40;;;;;;;3.27;2.07;;;1.80;95.30;;;;;;4196008;28;20205;-70
2022/04/19 01:43:41;;;;;;;3.43;2.00;;;1.90;95.30;;;;;;4194839;28;20417;-70
2022/04/19 01:45:42;;;;;;;1.97;1.63;;;1.80;95.50;;;;;;4195296;28;21169;-70
2022/04/19 01:47:43;;;;;;;2.53;1.60;;;1.80;95.70;;;;;;4195931;28;20452;-70
2022/04/19 01:49:43;;;;;;;2.67;1.67;;;1.80;95.60;;;;;;4194760;28;20582;-70
2022/04/19 01:51:44;;;;;;;3.67;2.20;;;1.80;95.60;;;;;;4195890;28;20180;-70
2022/04/19 01:53:45;;;;;;;1.73;1.50;;;1.70;95.70;;;;;;4195916;28;20216;-70
2022/04/19 01:55:46;;;;;;;2.13;1.70;;;1.70;95.80;;;;;;4195402;28;20195;-70
2022/04/19 01:57:51;;;;;;;2.70;2.00;;;1.70;95.70;;;;;;4196053;28;20200;-70
2022/04/19 01:59:53;;;;;;;2.97;1.97;;;1.70;95.90;;;;;;4194572;28;20462;-70
2022/04/19 02:01:53;;;;;;;2.33;1.60;;;1.70;95.90;;;;;;4195819;28;20434;-70
2022/04/19 02:03:54;;;;;;;2.40;1.57;;;1.70;95.90;;;;;;4195947;28;21063;-70
2022/04/19 02:05:55;;;;;;;2.10;1.70;;;1.60;95.90;;;;;;4177614;28;20203;-70
2022/04/19 02:07:55;;;;;;;2.73;2.03;;;1.70;96.00;;;;;;4195750;28;20215;-70
2022/04/19 02:09:58;;;;;;;2.53;1.97;;;1.70;96.10;;;;;;4195933;28;20248;-70
2022/04/19 02:11:58;;;;;;;2.90;1.70;;;1.70;96.10;;;;;;4194779;28;20356;-70
2022/04/19 02:13:59;;;;;;;3.33;2.20;;;1.60;96.20;;;;;;4195521;28;20505;-70
2022/04/19 02:16:00;;;;;;;2.23;2.00;;;1.70;96.30;;;;;;4195012;28;20190;-70
2022/04/19 02:18:01;;;;;;;2.93;1.90;;;1.70;96.30;;;;;;4193923;28;20215;-70
2022/04/19 02:20:06;;;;;;;2.37;1.87;;;1.80;95.80;;;;;;4190331;28;140253;-70
2022/04/19 02:22:09;;;;;;;4.17;1.87;;;1.70;96.10;;;;;;4189591;28;20187;-70
2022/04/19 02:24:09;;;;;;;2.37;1.70;;;1.60;96.20;;;;;;4196262;28;20445;-70
2022/04/19 02:26:10;;;;;;;2.67;1.87;;;1.60;96.40;;;;;;4194529;28;20826;-70
2022/04/19 02:28:11;;;;;;;2.00;1.57;;;1.60;96.40;;;;;;4196286;28;20316;-70
2022/04/19 02:30:14;;;;;;;3.23;1.67;;;1.60;96.40;;;;;;4196237;28;20215;-70
2022/04/19 02:32:15;;;;;;;3.07;1.70;;;1.60;96.50;;;;;;4195061;28;20279;-70
2022/04/19 02:34:18;;;;;;;3.00;2.00;;;1.60;96.60;;;;;;4196080;28;20465;-70
2022/04/19 02:36:18;;;;;;;2.50;1.77;;;1.60;96.50;;;;;;4195662;28;20290;-70
2022/04/19 02:38:19;;;;;;;2.20;1.70;;;1.60;96.70;;;;;;4194458;28;20795;-70
2022/04/19 02:40:23;;;;;;;2.13;1.80;;;1.50;96.60;;;;;;4179694;28;20184;-70
2022/04/19 02:42:24;;;;;;;4.37;1.90;;;1.50;96.60;;;;;;4178355;28;20878;-70
2022/04/19 02:44:25;;;;;;;1.93;1.70;;;1.40;96.90;;;;;;4179362;28;20521;-70
2022/04/19 02:46:26;;;;;;;2.10;1.67;;;1.40;97.30;;;;;;4177578;28;20183;-71
2022/04/19 02:48:28;;;;;;;2.93;1.83;;;1.40;97.40;;;;;;4179648;28;20556;-70
2022/04/19 02:50:33;;;;;;;4.57;1.80;;;1.40;97.70;;;;;;4178603;28;20977;-70
2022/04/19 02:52:33;;;;;;;2.17;1.77;;;1.40;97.80;;;;;;4179476;28;20429;-70
2022/04/19 02:54:34;;;;;;;2.00;1.80;;;1.40;97.60;;;;;;4178197;28;20481;-70
2022/04/19 02:56:34;;;;;;;3.20;1.90;;;1.40;97.70;;;;;;4178949;28;20187;-70
2022/04/19 02:58:35;;;;;;;3.10;2.20;;;1.40;97.80;;;;;;4184142;28;20673;-71
2022/04/19 03:00:37;;;;;;;3.40;1.80;;;1.40;97.90;;;;;;4194486;28;20195;-70
2022/04/19 03:02:39;;;;;;;3.63;2.60;;;1.30;98.10;;;;;;4194407;28;20236;-70
2022/04/19 03:04:40;;;;;;;3.17;2.57;;;1.30;98.10;;;;;;4195933;28;20421;-71
2022/04/19 03:06:41;;;;;;;2.53;1.80;;;1.30;98.30;;;;;;4191504;28;20503;-71
2022/04/19 03:08:42;;;;;;;2.57;1.90;;;1.30;98.20;;;;;;4195621;28;20979;-70
2022/04/19 03:10:42;;;;;;;3.30;2.07;;;1.30;98.10;;;;;;4195692;28;20608;-70
2022/04/19 03:12:44;;;;;;;2.73;1.70;;;1.40;97.80;;;;;;4195457;28;20643;-71
2022/04/19 03:14:45;;;;;;;3.07;1.80;;;1.30;97.60;;;;;;4194009;28;20207;-70
2022/04/19 03:16:45;;;;;;;3.43;1.70;;;1.30;97.80;;;;;;4194812;28;20459;-70
2022/04/19 03:18:46;;;;;;;2.07;1.80;;;1.20;98.00;;;;;;4195329;28;20228;-70
2022/04/19 03:20:47;;;;;;;5.43;1.90;;;1.20;98.50;;;;;;4195425;28;20180;-70
2022/04/19 03:27:41;;;;;;;3.47;1.90;;;1.20;98.50;;;;;;4195333;28;20455;-71
2022/04/19 03:29:42;;;;;;;2.47;1.57;;;1.20;98.40;;;;;;4194882;28;20912;-70
2022/04/19 03:31:42;;;;;;;3.10;1.70;;;1.20;98.50;;;;;;4195279;28;20420;-71
2022/04/19 03:33:43;;;;;;;1.93;1.73;;;1.10;98.70;;;;;;4193756;28;20210;-70
2022/04/19 03:35:44;;;;;;;2.23;1.87;;;1.10;98.80;;;;;;4194341;28;20187;-71
2022/04/19 03:37:44;;;;;;;3.03;2.10;;;1.10;99.00;;;;;;4193712;28;20245;-71
2022/04/19 03:39:45;;;;;;;2.80;1.90;;;1.10;99.00;;;;;;4195077;28;20605;-71
2022/04/19 03:41:46;;;;;;;3.70;2.20;;;1.10;99.10;;;;;;4193912;28;20205;-70
2022/04/19 03:43:47;;;;;;;2.30;1.80;;;1.10;98.90;;;;;;4195042;28;20191;-71
2022/04/19 03:45:47;;;;;;;3.83;2.00;;;1.10;99.20;;;;;;4194428;28;20665;-71
2022/04/19 03:47:49;;;;;;;3.07;2.17;;;1.10;99.20;;;;;;4194098;28;20440;-70
2022/04/19 03:49:49;;;;;;;2.97;1.80;;;1.00;99.20;;;;;;4195004;28;20239;-70
2022/04/19 03:51:50;;;;;;;2.63;1.80;;;1.00;99.50;;;;;;4194955;28;20912;-71
2022/04/19 03:53:52;;;;;;;3.40;2.00;;;1.00;99.50;;;;;;4195082;28;20685;-71
2022/04/19 03:55:53;;;;;;;2.30;1.60;;;1.10;99.40;;;;;;4194528;28;20183;-71
2022/04/19 03:57:54;;;;;;;3.50;2.00;;;1.00;99.30;;;;;;4194945;28;20440;-71
2022/04/19 03:59:54;;;;;;;2.93;1.87;;;1.00;99.20;;;;;;4194847;28;20211;-71
2022/04/19 04:01:55;;;;;;;3.00;1.80;;;1.00;99.50;;;;;;4194723;28;20204;-71
2022/04/19 04:03:56;;;;;;;2.33;1.90;;;1.00;99.50;;;;;;4195018;28;20187;-70
2022/04/19 04:05:57;;;;;;;3.67;2.17;;;1.00;99.30;;;;;;4194339;28;20192;-71
2022/04/19 04:07:59;;;;;;;5.20;1.90;;;1.00;99.40;;;;;;4194996;28;20791;-71
2022/04/19 04:09:59;;;;;;;2.93;1.90;;;1.00;99.30;;;;;;4193640;28;20441;-71
2022/04/19 04:12:05;;;;;;;3.13;2.30;;;1.00;99.20;;;;;;4194925;28;20520;-71
2022/04/19 04:14:06;;;;;;;2.63;2.00;;;1.00;99.50;;;;;;4193690;28;20218;-70
2022/04/19 04:16:07;;;;;;;2.63;1.80;;;1.10;99.20;;;;;;4194230;28;20918;-71
2022/04/19 04:18:08;;;;;;;2.70;1.80;;;1.10;99.20;;;;;;4194740;28;20218;-71
2022/04/19 04:20:10;;;;;;;3.23;1.90;;;1.10;99.10;;;;;;4194670;28;20195;-71
2022/04/19 04:22:11;;;;;;;4.03;2.17;;;1.10;98.70;;;;;;4194630;28;20471;-71
2022/04/19 04:24:12;;;;;;;3.10;1.77;;;1.10;98.70;;;;;;4196043;28;20440;-71
2022/04/19 04:26:12;;;;;;;2.80;2.10;;;1.00;98.90;;;;;;4196285;28;20183;-71
2022/04/19 04:28:13;;;;;;;2.90;2.07;;;1.00;98.90;;;;;;4197841;28;20282;-71
2022/04/19 04:30:14;;;;;;;2.50;1.90;;;0.90;99.00;;;;;;4197121;28;20254;-71
2022/04/19 04:32:15;;;;;;;2.70;1.80;;;0.90;99.80;;;;;;4197897;28;20570;-71
2022/04/19 04:34:15;;;;;;;4.20;2.20;;;0.80;99.70;;;;;;4196682;28;20219;-71
2022/04/19 04:36:16;;;;;;;1.97;1.77;;;0.90;99.90;;;;;;4196750;28;20640;-71
2022/04/19 04:38:17;;;;;;;3.27;2.10;;;0.90;99.90;;;;;;4198117;28;20241;-71
2022/04/19 04:40:17;;;;;;;2.50;1.97;;;1.00;99.80;;;;;;4198450;28;20615;-71
2022/04/19 04:42:18;;;;;;;3.57;2.40;;;0.90;99.80;;;;;;4196638;28;20736;-70
2022/04/19 04:44:19;;;;;;;5.07;2.23;;;0.90;99.70;;;;;;4194658;28;20590;-71
2022/04/19 04:50:58;;;;;;;2.97;2.10;;;1.20;99.20;;;;;;4178246;28;20429;-70
2022/04/19 04:52:58;;;;;;;2.87;1.97;;;1.10;99.20;;;;;;4176726;28;20796;-70
2022/04/19 04:54:59;;;;;;;2.57;1.80;;;1.10;99.20;;;;;;4177860;28;20832;-70
2022/04/19 04:57:01;;;;;;;2.93;1.80;;;1.10;99.60;;;;;;4177655;28;20683;-70
2022/04/19 04:59:02;;;;;;;2.73;2.00;;;1.10;99.70;;;;;;4178348;28;20192;-70
2022/04/19 05:01:03;;;;;;;3.03;1.70;;;1.10;99.80;;;;;;4176787;28;20663;-70
2022/04/19 05:03:04;;;;;;;2.20;2.00;;;1.10;99.80;;;;;;4177897;28;20444;-71
2022/04/19 05:05:05;;;;;;;2.50;1.90;;;1.10;99.80;;;;;;4177561;28;20234;-71
2022/04/19 05:07:05;;;;;;;5.67;2.40;;;1.20;99.80;;;;;;4177602;28;20215;-70
2022/04/19 05:09:06;;;;;;;2.70;1.73;;;1.20;99.90;;;;;;4177830;28;20530;-70
2022/04/19 05:11:07;;;;;;;3.63;2.10;;;1.30;99.40;;;;;;4177817;28;20176;-70
2022/04/19 05:13:07;;;;;;;2.60;2.00;;;1.40;99.10;;;;;;4182703;28;20215;-71
2022/04/19 05:15:08;;;;;;;4.57;1.73;;;1.50;98.80;;;;;;4183945;28;20218;-71
2022/04/19 05:17:10;;;;;;;5.77;3.10;;;1.50;98.50;;;;;;4196154;28;20210;-70
2022/04/19 05:19:11;;;;;;;3.33;1.93;;;1.50;98.50;;;;;;4197325;28;20444;-71
2022/04/19 05:21:11;;;;;;;2.33;2.10;;;1.50;98.60;;;;;;4196196;28;20405;-70
2022/04/19 05:23:12;;;;;;;4.53;1.90;;;1.60;98.40;;;;;;4196127;28;20194;-70
2022/04/19 05:25:13;;;;;;;3.93;1.87;;;1.70;98.00;;;;;;4197106;28;20207;-70
2022/04/19 05:27:14;;;;;;;3.53;2.47;;;1.60;97.70;;;;;;4195221;28;20292;-70
2022/04/19 05:29:15;;;;;;;3.07;2.10;;;1.70;97.90;;;;;;4195957;28;20878;-70
2022/04/19 05:31:16;;;;;;;1.97;1.73;;;1.80;97.70;;;;;;4197248;28;20183;-70
2022/04/19 05:33:17;;;;;;;2.07;1.60;;;1.80;97.70;;;;;;4197131;28;20566;-70
2022/04/19 05:35:18;;;;;;;3.40;2.27;;;1.90;97.50;;;;;;4197074;28;20184;-70
2022/04/19 05:37:19;;;;;;;2.47;1.80;;;2.00;97.60;;;;;;4196874;28;20208;-71
2022/04/19 05:39:19;;;;;;;4.73;2.00;;;2.10;97.20;;;;;;4197176;28;20215;-71
2022/04/19 05:41:21;;;;;;;3.77;2.27;;;2.10;97.40;;;;;;4197228;28;20190;-70
2022/04/19 05:43:22;;;;;;;2.67;1.97;;;2.10;97.00;;;;;;4197012;28;20292;-70
2022/04/19 05:45:22;;;;;;;2.63;2.10;;;2.20;96.50;;;;;;4196509;28;20418;-70
2022/04/19 05:47:23;;;;;;;3.10;2.13;;;2.10;96.40;;;;;;4195755;28;20211;-71
2022/04/19 05:49:24;;;;;;;2.70;1.90;;;2.10;96.70;;;;;;4195543;28;20194;-71
2022/04/19 05:51:25;;;;;;;2.63;1.80;;;2.20;97.30;;;;;;4195497;28;20744;-71
2022/04/19 05:53:25;;;;;;;4.50;2.00;;;2.30;97.00;;;;;;4196583;28;20203;-71
2022/04/19 05:55:26;;;;;;;4.87;1.90;;;2.50;96.10;;;;;;4178245;28;20183;-71
2022/04/19 05:57:27;;;;;;;2.27;1.87;;;2.60;95.70;;;;;;4196809;28;20286;-70
2022/04/19 05:59:28;;;;;;;3.60;2.40;;;2.70;95.20;;;;;;4196831;28;20665;-71
2022/04/19 06:04:51;;;;;;;3.97;2.07;;;2.80;94.80;;;;;;4196789;28;20218;-71
2022/04/19 06:06:08;;;;;;;2.57;1.90;;;2.80;95.20;;;;;;4196020;28;20514;-71
2022/04/19 06:08:08;;;;;;;2.27;1.50;;;3.00;94.60;;;;;;4195577;28;20478;-71
2022/04/19 06:10:09;;;;;;;2.27;2.03;;;3.10;94.00;;;;;;4195254;28;20187;-71
2022/04/19 06:12:10;;;;;;;3.07;1.50;;;3.10;94.10;;;;;;4196842;28;20188;-70
2022/04/19 06:14:11;;;;;;;2.40;1.70;;;3.10;94.10;;;;;;4195582;28;20298;-70
2022/04/19 06:16:11;;;;;;;2.43;1.97;;;3.10;94.40;;;;;;4196159;28;20457;-71
2022/04/19 06:18:12;;;;;;;1.90;1.70;;;3.10;94.50;;;;;;4196677;28;20199;-71
2022/04/19 06:20:13;;;;;;;4.10;1.90;;;3.10;94.60;;;;;;4196315;28;20218;-71
2022/04/19 06:22:13;;;;;;;2.47;1.83;;;3.20;94.00;;;;;;4196427;28;20186;-71
2022/04/19 06:24:14;;;;;;;2.30;1.60;;;3.30;93.90;;;;;;4195677;28;20183;-71
2022/04/19 06:26:15;;;;;;;3.23;1.83;;;3.40;93.60;;;;;;4195365;28;20228;-71
2022/04/19 06:28:17;;;;;;;2.07;1.70;;;3.50;93.40;;;;;;4196235;28;20211;-70
2022/04/19 06:30:18;;;;;;;3.00;2.03;;;3.50;93.30;;;;;;4196392;28;20187;-71
2022/04/19 06:32:22;;;;;;;3.00;2.07;;;3.70;93.00;;;;;;4196268;28;20429;-71
2022/04/19 06:34:23;;;;;;;4.00;1.80;;;3.70;93.10;;;;;;4196304;28;20246;-71
2022/04/19 06:36:23;;;;;;;3.57;2.10;;;3.80;93.00;;;;;;4195580;28;21275;-71
2022/04/19 06:38:24;;;;;;;3.30;1.90;;;4.00;92.20;;;;;;4196198;28;20654;-71
2022/04/19 06:40:25;;;;;;;2.80;1.63;;;4.00;92.40;;;;;;4196200;28;20606;-71
2022/04/19 06:42:25;;;;;;;3.23;2.30;;;4.10;92.50;;;;;;4196154;28;20667;-71
2022/04/19 06:44:26;;;;;;;6.33;4.03;;;4.20;92.00;;;;;;4188730;28;20704;-71
2022/04/19 06:46:28;;;;;;;5.87;3.50;;;4.20;91.90;;;;;;4177737;28;20190;-72
2022/04/19 06:48:29;;;;;;;5.93;3.03;;;4.40;90.90;;;;;;4178177;28;20451;-71
2022/04/19 06:50:30;;;;;;;3.23;2.20;;;4.50;90.40;;;;;;4178114;28;20432;-71
2022/04/19 06:52:31;;;;;;;5.07;2.03;;;4.60;90.50;;;;;;4179381;28;20456;-71
2022/04/19 06:54:32;;;;;;;3.77;2.33;;;4.70;90.20;;;;;;4179366;28;20691;-71
2022/04/19 06:56:32;;;;;;;4.43;2.03;;;4.90;89.80;;;;;;4178836;28;20184;-71
2022/04/19 06:58:33;;;;;;;2.77;1.97;;;5.00;89.50;;;;;;4161355;28;20454;-71
2022/04/19 07:00:34;;;;;;;3.40;2.13;;;5.10;87.90;;;;;;4194839;28;20278;-72
2022/04/19 07:02:34;;;;;;;3.97;2.00;;;5.30;86.40;;;;;;4179418;28;20194;-72
2022/04/19 07:04:35;;;;;;;3.53;2.20;;;5.50;84.60;;;;;;4179225;28;20187;-71
2022/04/19 07:06:36;;;;;;;4.10;2.30;;;5.60;84.10;;;;;;4177323;28;20965;-71
2022/04/19 07:08:37;;;;;;;5.10;2.00;;;5.90;83.90;;;;;;4179426;28;20234;-71
2022/04/19 07:10:37;;;;;;;2.10;1.80;;;6.30;81.10;;;;;;4179251;28;20437;-71
2022/04/19 07:12:39;;;;;;;3.23;1.80;;;6.60;78.30;;;;;;4179144;28;20293;-71
2022/04/19 07:14:40;;;;;;;2.53;1.83;;;6.70;78.00;;;;;;4177721;28;20613;-71
2022/04/19 07:16:41;;;;;;;3.10;2.27;;;6.90;77.80;;;;;;4178439;28;20423;-71
2022/04/19 07:18:41;;;;;;;2.13;1.70;;;6.90;77.40;;;;;;4178857;28;20559;-71
2022/04/19 07:27:43;;;;;;;3.07;1.80;;;8.10;71.50;;;;;;4179145;28;20515;-71
2022/04/19 07:29:44;;;;;;;2.23;1.97;;;8.40;67.50;;;;;;4183806;28;20426;-71
2022/04/19 07:31:47;;;;;;;3.00;1.90;;;8.50;62.10;;;;;;4195371;28;20188;-71
2022/04/19 07:33:48;;;;;;;2.53;1.87;;;8.60;62.80;;;;;;4195340;28;20214;-71
2022/04/19 07:35:53;;;;;;;3.03;1.80;;;8.80;58.60;;;;;;4194296;28;20439;-71
2022/04/19 07:37:53;;;;;;;2.93;2.00;;;9.00;58.90;;;;;;4194188;28;20542;-71
2022/04/19 07:39:54;;;;;;;2.57;2.27;;;9.30;55.80;;;;;;4195329;28;20179;-71
2022/04/19 07:41:55;;;;;;;4.37;2.27;;;9.50;57.40;;;;;;4195300;28;20179;-71
2022/04/19 07:43:56;;;;;;;2.60;1.90;;;9.70;54.00;;;;;;4193667;28;20213;-71
2022/04/19 07:45:57;;;;;;;3.17;2.20;;;9.80;54.70;;;;;;4194599;28;20186;-71
2022/04/19 07:47:58;;;;;;;2.40;1.93;;;10.00;52.80;;;;;;4195169;28;20306;-71
2022/04/19 07:49:58;;;;;;;2.30;1.90;;;10.20;53.70;;;;;;4195154;28;20606;-72
2022/04/19 07:51:59;;;;;;;2.47;1.80;;;10.30;53.20;;;;;;4193776;28;20207;-72
2022/04/19 07:53:59;;;;;;;3.97;2.10;;;10.60;49.40;;;;;;4195014;28;20257;-71
2022/04/19 07:56:01;;;;;;;3.27;2.30;;;10.80;48.50;;;;;;4194718;28;20179;-71
2022/04/19 07:58:02;;;;;;;4.10;2.00;;;10.90;50.70;;;;;;4195249;28;20575;-71
2022/04/19 08:00:04;;;;;;;2.37;1.83;;;11.00;49.90;;;;;;4195382;28;20681;-70
2022/04/19 08:02:05;;;;;;;3.60;2.20;;;11.00;51.40;;;;;;4193889;28;20191;-71
2022/04/19 08:04:06;;;;;;;2.07;1.77;;;11.10;50.10;;;;;;4195460;28;20183;-71
2022/04/19 08:06:07;;;;;;;2.70;1.70;;;11.20;50.40;;;;;;4193302;28;20194;-71
2022/04/19 08:08:08;;;;;;;3.07;1.83;;;11.30;50.30;;;;;;4193794;28;20203;-71
2022/04/19 08:10:09;;;;;;;5.00;2.37;;;11.40;48.60;;;;;;4195379;28;20236;-71
2022/04/19 08:12:11;;;;;;;2.77;2.20;;;11.50;47.10;;;;;;4193976;28;20184;-71
2022/04/19 08:14:11;;;;;;;3.70;1.83;;;11.60;49.60;;;;;;4193887;28;20918;-71
2022/04/19 08:16:12;;;;;;;3.40;2.17;;;11.60;47.90;;;;;;4194690;28;20180;-71
2022/04/19 08:18:16;;;;;;;4.13;2.33;;;11.60;48.00;;;;;;4193665;28;20214;-71
2022/04/19 08:20:16;;;;;;;2.80;1.90;;;11.60;47.10;;;;;;4194904;28;20191;-71
2022/04/19 08:22:17;;;;;;;2.67;1.90;;;11.70;43.80;;;;;;4195022;28;20191;-71
2022/04/19 08:24:18;;;;;;;2.83;2.03;;;11.80;43.00;;;;;;4195570;28;20272;-71
2022/04/19 08:26:19;;;;;;;3.60;2.37;;;11.80;43.40;;;;;;4196472;28;20865;-71
2022/04/19 08:28:20;;;;;;;3.63;2.47;;;11.70;42.60;;;;;;4196876;28;20356;-71
2022/04/19 08:30:21;;;;;;;3.97;2.37;;;11.80;42.00;;;;;;4195034;28;20655;-71
2022/04/19 08:32:21;;;;;;;3.53;2.10;;;11.70;41.40;;;;;;4193661;28;20233;-71
2022/04/19 08:34:22;;;;;;;3.07;2.07;;;11.90;43.90;;;;;;4194745;28;20210;-71
2022/04/19 08:36:23;;;;;;;3.70;2.03;;;11.90;42.80;;;;;;4194172;28;20188;-71
2022/04/19 08:38:23;;;;;;;3.37;2.20;;;11.90;42.90;;;;;;4194986;28;20238;-71
2022/04/19 08:40:27;;;;;;;3.07;2.20;;;12.00;45.80;;;;;;4194802;28;20187;-71
2022/04/19 08:42:29;;;;;;;3.77;2.20;;;12.20;42.60;;;;;;4193650;28;20682;-71
2022/04/19 08:44:30;;;;;;;3.30;2.20;;;12.30;41.70;;;;;;4187147;28;20184;-70
2022/04/19 08:46:33;;;;;;;2.50;1.80;;;12.40;40.70;;;;;;4176383;28;20192;-71
2022/04/19 08:48:35;;;;;;;3.97;2.10;;;12.40;41.40;;;;;;4181225;28;20211;-71
2022/04/19 08:50:37;;;;;;;4.37;2.80;;;12.60;40.60;;;;;;4184942;28;20271;-71
2022/04/19 08:52:39;;;;;;;3.73;2.20;;;12.80;44.20;;;;;;4189419;28;20248;-69
2022/04/19 08:59:28;;;;;;;2.67;2.00;;;12.80;40.00;;;;;;4208800;28;20185;-71
2022/04/19 09:01:29;;;;;;;2.67;1.90;;;12.90;39.70;;;;;;4207592;28;20215;-72
2022/04/19 09:03:31;;;;;;;2.77;1.93;;;13.20;44.00;;;;;;4211140;28;20265;-71
2022/04/19 09:05:32;;;;;;;2.70;1.80;;;13.20;38.10;;;;;;4206449;28;20314;-71
2022/04/19 09:07:37;;;;;;;2.23;1.60;;;13.20;36.30;;;;;;4211487;28;20690;-70
2022/04/19 09:09:38;;;;;;;3.40;2.30;;;13.20;37.60;;;;;;4217644;28;20183;-70
2022/04/19 09:11:38;;;;;;;3.57;2.53;;;13.20;39.50;;;;;;4206115;28;20184;-70
2022/04/19 09:13:39;;;;;;;2.77;1.93;;;13.30;39.70;;;;;;4212519;28;20206;-71
2022/04/19 09:15:43;;;;;;;2.57;1.83;;;13.60;39.50;;;;;;4204213;28;20183;-70
2022/04/19 09:17:49;;;;;;;2.20;1.77;;;13.70;35.50;;;;;;4212761;28;20554;-70
2022/04/19 09:19:50;;;;;;;2.60;1.60;;;13.70;37.70;;;;;;4216144;28;20195;-70
2022/04/19 09:21:51;;;;;;;2.80;2.20;;;13.70;37.70;;;;;;4200420;28;20725;-70
2022/04/19 09:23:53;;;;;;;3.87;2.00;;;13.60;39.60;;;;;;4208904;28;20685;-74
2022/04/19 09:25:59;;;;;;;3.37;2.40;;;13.60;41.00;;;;;;4199680;28;20565;-74
2022/04/19 09:28:03;;;;;;;4.13;2.30;;;13.50;39.30;;;;;;4192994;28;20286;-74
2022/04/19 09:30:18;;;;;;;5.00;2.33;;;14.00;41.70;;;;;;4198648;28;20195;-75
2022/04/19 09:32:19;;;;;;;3.87;2.60;;;14.20;38.20;;;;;;4180899;28;20223;-74
2022/04/19 09:34:34;;;;;;;3.73;1.90;;;14.20;39.30;;;;;;4213107;28;20297;-74
2022/04/19 09:36:34;;;;;;;3.13;1.93;;;14.40;40.90;;;;;;4197268;28;20676;-71
2022/04/19 09:38:49;;;;;;;3.97;2.03;;;14.50;37.70;;;;;;4210665;28;20252;-71
2022/04/19 09:40:49;;;;;;;4.03;2.47;;;14.30;38.20;;;;;;4199938;28;20662;-71
2022/04/19 09:42:54;;;;;;;3.10;2.10;;;14.60;37.30;;;;;;4208788;28;20186;-70
2022/04/19 09:44:56;;;;;;;2.40;1.63;;;14.80;37.80;;;;;;4200872;28;20652;-70
2022/04/19 09:47:12;;;;;;;2.97;2.07;;;15.00;36.80;;;;;;4207335;28;20248;-70
2022/04/19 09:49:12;;;;;;;2.83;1.80;;;15.10;34.60;;;;;;4204431;28;20564;-71
2022/04/19 09:51:13;;;;;;;2.53;2.03;;;15.40;36.40;;;;;;4204249;28;20191;-71
2022/04/19 09:53:23;;;;;;;3.70;2.40;;;15.00;35.10;;;;;;4204294;28;20195;-71
2022/04/19 09:55:23;;;;;;;2.40;2.03;;;15.20;37.80;;;;;;4202160;28;20180;-71
2022/04/19 09:57:25;;;;;;;2.50;2.00;;;15.60;35.30;;;;;;4205869;28;20242;-71
2022/04/19 09:59:29;;;;;;;2.97;2.17;;;15.60;36.70;;;;;;4203301;28;20231;-71
2022/04/19 10:08:31;;;;;;;1.57;1.47;;;16.20;34.70;;;;;;4191950;28;20315;-71
2022/04/19 10:10:31;;;;;;;3.57;1.73;;;16.10;32.30;;;;;;4209593;28;20193;-71
2022/04/19 10:12:33;;;;;;;1.90;1.47;;;16.00;34.10;;;;;;4198327;28;20188;-71
2022/04/19 10:14:35;;;;;;;1.87;1.70;;;16.50;32.60;;;;;;4210440;28;20222;-73
2022/04/19 10:16:36;;;;;;;2.47;1.80;;;16.60;31.10;;;;;;4198439;28;20179;-73
2022/04/19 10:18:38;;;;;;;2.40;1.63;;;17.20;32.80;;;;;;4208585;28;20199;-70
2022/04/19 10:20:54;;;;;;;2.63;1.80;;;17.30;29.50;;;;;;4197833;28;20190;-72
2022/04/19 10:23:03;;;;;;;3.10;1.97;;;17.30;29.60;;;;;;4206229;28;20213;-73
2022/04/19 10:25:11;;;;;;;3.17;2.13;;;17.50;31.10;;;;;;4202434;28;20269;-72
2022/04/19 10:27:12;;;;;;;2.30;1.90;;;18.60;30.20;;;;;;4203393;28;20735;-71
2022/04/19 10:29:34;;;;;;;2.40;1.90;;;19.50;26.30;;;;;;4202684;28;20215;-69
2022/04/19 10:31:37;;;;;;;2.37;1.90;;;19.40;27.20;;;;;;4200832;28;20183;-67
2022/04/19 10:33:45;;;;;;;2.30;2.10;;;19.40;29.90;;;;;;4206062;28;20644;-67
2022/04/19 10:36:10;;;;;;;2.43;1.90;;;19.70;27.70;;;;;;4198628;28;20266;-67
2022/04/19 10:38:21;;;;;;;3.30;1.80;;;20.10;25.90;;;;;;4212131;28;20203;-67
2022/04/19 10:40:23;;;;;;;2.50;1.70;;;20.90;25.90;;;;;;4210715;28;20256;-69
2022/04/19 10:42:34;;;;;;;3.00;1.80;;;20.10;25.80;;;;;;4194573;28;20781;-72
2022/04/19 10:44:52;;;;;;;2.23;1.93;;;20.60;25.60;;;;;;4182774;28;20270;-69
2022/04/19 10:47:16;;;;;;;2.43;1.80;;;20.30;26.00;;;;;;4206811;28;20678;-67
2022/04/19 10:49:24;;;;;;;2.87;1.83;;;19.80;27.10;;;;;;4204462;28;20179;-66
2022/04/19 10:51:28;;;;;;;3.77;1.90;;;20.20;25.40;;;;;;4202596;28;20187;-66
2022/04/19 10:53:33;;;;;;;2.77;1.70;;;20.50;25.80;;;;;;4204236;28;20258;-67
2022/04/19 10:55:38;;;;;;;2.10;1.90;;;21.00;25.50;;;;;;4200800;28;20192;-65
2022/04/19 10:58:16;;;;;;;2.03;1.83;;;20.20;25.40;;;;;;4206808;28;20203;-67
2022/04/19 11:00:27;;;;;;;1.90;1.70;;;20.60;27.10;;;;;;4195442;28;20248;-68
2022/04/19 11:02:35;;;;;;;1.77;1.60;;;20.80;27.10;;;;;;4180459;28;20644;-69
2022/04/19 11:04:36;;;;;;;1.90;1.70;;;21.70;24.80;;;;;;4209409;28;20270;-68
2022/04/19 11:06:40;;;;;;;2.20;2.00;;;20.40;26.20;;;;;;4196268;28;20320;-67
2022/04/19 11:08:42;;;;;;;1.93;1.73;;;20.10;25.80;;;;;;4208719;28;20222;-66
2022/04/19 11:10:42;;;;;;;2.30;1.77;;;19.90;27.30;;;;;;4198270;28;20261;-69
2022/04/19 11:12:58;;;;;;;2.20;1.70;;;20.00;29.80;;;;;;4208653;28;20613;-67
2022/04/19 11:15:14;;;;;;;1.57;1.47;;;20.70;25.70;;;;;;4199979;28;20219;-70